createdAt,value
2022-10-25T00:00:01.852Z,19.40
2022-10-25T00:02:35.901Z,19.50
2022-10-25T00:05:13.870Z,19.50
2022-10-25T00:07:46.956Z,19.60
2022-10-25T00:10:22.258Z,19.60
2022-10-25T00:12:54.633Z,19.70
2022-10-25T00:15:27.776Z,19.70
2022-10-25T00:18:00.692Z,19.70
2022-10-25T00:20:33.511Z,19.70
2022-10-25T00:23:06.513Z,19.70
2022-10-25T00:25:39.467Z,19.60
2022-10-25T00:28:12.175Z,19.60
2022-10-25T00:30:44.754Z,19.60
2022-10-25T00:33:19.100Z,19.70
2022-10-25T00:35:51.773Z,19.70
2022-10-25T00:38:24.688Z,19.70
2022-10-25T00:40:57.500Z,19.80
2022-10-25T00:43:41.330Z,19.80
2022-10-25T00:46:19.489Z,19.80
2022-10-25T00:48:57.253Z,19.80
2022-10-25T00:51:43.556Z,19.80
2022-10-25T00:54:18.553Z,19.80
2022-10-25T00:56:53.124Z,19.80
2022-10-25T00:59:27.985Z,19.70
2022-10-25T01:02:00.892Z,19.70
2022-10-25T01:04:35.210Z,19.70
2022-10-25T01:07:07.977Z,19.60
2022-10-25T01:09:42.717Z,19.60
2022-10-25T01:12:15.601Z,19.60
2022-10-25T01:14:51.189Z,19.50
2022-10-25T01:17:43.571Z,19.50
2022-10-25T01:20:30.107Z,19.50
2022-10-25T01:23:22.740Z,19.50
2022-10-25T01:25:58.509Z,19.50
2022-10-25T01:28:45.662Z,19.50
2022-10-25T01:31:26.449Z,19.40
2022-10-25T01:34:06.790Z,19.40
2022-10-25T01:37:12.098Z,19.40
2022-10-25T01:39:46.886Z,19.40
2022-10-25T01:42:24.722Z,19.40
2022-10-25T01:45:14.295Z,19.30
2022-10-25T01:47:57.775Z,19.30
2022-10-25T01:50:35.716Z,19.20
2022-10-25T01:53:08.321Z,19.30
2022-10-25T01:55:49.788Z,19.30
2022-10-25T01:58:42.591Z,19.30
2022-10-25T02:04:29.746Z,19.30
2022-10-25T02:07:07.444Z,19.30
2022-10-25T02:09:45.159Z,19.30
2022-10-25T02:12:19.776Z,19.30
2022-10-25T02:14:54.366Z,19.30
2022-10-25T02:17:28.783Z,19.30
2022-10-25T02:20:06.727Z,19.30
2022-10-25T02:22:41.154Z,19.30
2022-10-25T02:25:15.142Z,19.30
2022-10-25T02:27:49.661Z,19.30
2022-10-25T02:30:22.581Z,19.40
2022-10-25T02:32:55.774Z,19.40
2022-10-25T02:35:28.478Z,19.40
2022-10-25T02:38:01.012Z,19.40
2022-10-25T02:40:34.177Z,19.40
2022-10-25T02:43:07.027Z,19.40
2022-10-25T02:45:39.755Z,19.40
2022-10-25T02:48:12.739Z,19.40
2022-10-25T02:50:45.545Z,19.30
2022-10-25T02:53:18.215Z,19.30
2022-10-25T02:55:50.994Z,19.30
2022-10-25T02:58:23.798Z,19.30
2022-10-25T03:00:56.581Z,19.30
2022-10-25T03:03:29.743Z,19.20
2022-10-25T03:06:02.833Z,19.20
2022-10-25T03:08:35.621Z,19.20
2022-10-25T03:11:09.347Z,19.20
2022-10-25T03:13:42.043Z,19.20
2022-10-25T03:16:15.124Z,19.20
2022-10-25T03:18:48.160Z,19.10
2022-10-25T03:21:21.089Z,19.10
2022-10-25T03:23:54.001Z,19.00
2022-10-25T03:26:26.897Z,19.00
2022-10-25T03:28:59.538Z,19.00
2022-10-25T03:31:32.327Z,19.00
2022-10-25T03:34:05.053Z,19.00
2022-10-25T03:36:37.933Z,18.90
2022-10-25T03:39:10.962Z,18.90
2022-10-25T03:41:43.588Z,18.80
2022-10-25T03:44:16.620Z,18.80
2022-10-25T03:46:49.354Z,18.80
2022-10-25T03:49:22.195Z,18.70
2022-10-25T03:51:57.833Z,18.70
2022-10-25T03:54:29.410Z,18.70
2022-10-25T03:57:02.334Z,18.60
2022-10-25T03:59:35.156Z,18.60
2022-10-25T04:02:07.805Z,18.60
2022-10-25T04:04:40.542Z,18.50
2022-10-25T04:07:13.280Z,18.40
2022-10-25T04:09:45.977Z,18.40
2022-10-25T04:12:18.722Z,18.40
2022-10-25T04:14:51.418Z,18.40
2022-10-25T04:17:24.245Z,18.30
2022-10-25T04:19:56.990Z,18.30
2022-10-25T04:22:29.625Z,18.30
2022-10-25T04:25:02.150Z,18.30
2022-10-25T04:27:34.789Z,18.30
2022-10-25T04:30:07.572Z,18.20
2022-10-25T04:32:40.149Z,18.20
2022-10-25T04:35:13.322Z,18.20
2022-10-25T04:37:46.289Z,18.20
2022-10-25T04:40:22.585Z,18.20
2022-10-25T04:42:53.144Z,18.20
2022-10-25T04:45:25.831Z,18.20
2022-10-25T04:47:58.823Z,18.10
2022-10-25T04:50:31.689Z,18.10
2022-10-25T04:53:04.517Z,18.10
2022-10-25T04:55:37.282Z,18.10
2022-10-25T04:58:09.962Z,18.00
2022-10-25T05:00:42.702Z,18.00
2022-10-25T05:03:15.789Z,18.00
2022-10-25T05:05:48.396Z,17.90
2022-10-25T05:08:21.075Z,17.90
2022-10-25T05:10:59.618Z,17.90
2022-10-25T05:13:33.510Z,17.90
2022-10-25T05:16:06.749Z,17.90
2022-10-25T05:18:39.705Z,17.90
2022-10-25T05:21:12.999Z,17.90
2022-10-25T05:23:50.629Z,17.90
2022-10-25T05:26:24.375Z,17.90
2022-10-25T05:28:58.756Z,17.90
2022-10-25T05:31:33.114Z,17.80
2022-10-25T05:34:06.140Z,17.80
2022-10-25T05:36:38.759Z,17.80
2022-10-25T05:39:11.665Z,17.70
2022-10-25T05:41:44.684Z,17.70
2022-10-25T05:44:18.531Z,17.60
2022-10-25T05:46:51.259Z,17.60
2022-10-25T05:49:23.893Z,17.60
2022-10-25T05:52:01.045Z,17.50
2022-10-25T05:54:34.705Z,17.50
2022-10-25T05:57:07.633Z,17.50
2022-10-25T05:59:40.739Z,17.50
2022-10-25T06:02:14.173Z,17.40
2022-10-25T06:04:51.518Z,17.40
2022-10-25T06:07:21.074Z,17.40
2022-10-25T06:09:54.427Z,17.40
2022-10-25T06:12:37.116Z,17.30
2022-10-25T06:15:11.320Z,17.30
2022-10-25T06:17:44.427Z,17.30
2022-10-25T06:20:17.528Z,17.30
2022-10-25T06:22:50.548Z,17.30
2022-10-25T06:25:23.749Z,17.20
2022-10-25T06:27:57.052Z,17.20
2022-10-25T06:33:03.122Z,17.10
2022-10-25T06:35:36.267Z,17.10
2022-10-25T06:38:09.502Z,17.10
2022-10-25T06:40:45.288Z,17.10
2022-10-25T06:43:18.570Z,17.10
2022-10-25T06:45:51.913Z,17.10
2022-10-25T06:48:25.097Z,17.10
2022-10-25T06:51:27.458Z,17.10
2022-10-25T06:56:50.624Z,17.10
2022-10-25T06:59:23.754Z,17.10
2022-10-25T07:01:57.446Z,17.10
2022-10-25T07:04:30.702Z,17.00
2022-10-25T07:07:03.793Z,17.10
2022-10-25T07:09:36.632Z,17.10
2022-10-25T07:12:12.601Z,17.00
2022-10-25T07:14:44.039Z,17.00
2022-10-25T07:17:17.080Z,17.00
2022-10-25T07:19:50.041Z,17.00
2022-10-25T07:22:23.079Z,17.00
2022-10-25T07:24:56.080Z,17.00
2022-10-25T07:27:29.728Z,16.90
2022-10-25T07:30:04.791Z,16.90
2022-10-25T07:32:41.508Z,16.90
2022-10-25T07:35:13.215Z,16.90
2022-10-25T07:37:46.175Z,16.90
2022-10-25T07:40:19.260Z,16.90
2022-10-25T07:42:53.069Z,16.90
2022-10-25T07:45:27.640Z,16.80
2022-10-25T07:48:00.004Z,16.80
2022-10-25T07:50:32.868Z,16.80
2022-10-25T07:53:05.826Z,16.80
2022-10-25T07:55:38.990Z,16.80
2022-10-25T07:58:13.397Z,16.80
2022-10-25T08:00:46.527Z,16.80
2022-10-25T08:03:20.647Z,16.80
2022-10-25T08:05:53.570Z,16.80
2022-10-25T08:08:27.166Z,16.80
2022-10-25T08:11:01.432Z,16.70
2022-10-25T08:13:34.462Z,16.70
2022-10-25T08:16:07.649Z,16.80
2022-10-25T08:18:40.785Z,16.80
2022-10-25T08:21:13.738Z,16.80
2022-10-25T08:23:48.606Z,16.70
2022-10-25T08:29:09.506Z,16.70
2022-10-25T08:31:42.496Z,16.70
2022-10-25T08:34:15.498Z,16.70
2022-10-25T08:36:48.517Z,16.70
2022-10-25T08:39:21.629Z,16.70
2022-10-25T08:41:59.570Z,16.70
2022-10-25T08:44:52.847Z,16.80
2022-10-25T08:47:32.388Z,16.70
2022-10-25T08:50:10.571Z,16.70
2022-10-25T08:52:58.174Z,16.70
2022-10-25T08:55:58.763Z,16.70
2022-10-25T08:58:29.450Z,16.70
2022-10-25T09:01:05.317Z,16.70
2022-10-25T09:06:30.737Z,16.70
2022-10-25T09:09:15.918Z,16.70
2022-10-25T09:12:02.483Z,16.70
2022-10-25T09:14:48.890Z,16.70
2022-10-25T09:17:25.832Z,16.70
2022-10-25T09:20:09.768Z,16.70
2022-10-25T09:22:53.306Z,16.70
2022-10-25T09:25:30.718Z,16.70
2022-10-25T09:28:05.894Z,16.70
2022-10-25T09:30:43.797Z,16.70
2022-10-25T09:33:19.034Z,16.70
2022-10-25T09:35:56.471Z,16.70
2022-10-25T09:38:34.158Z,16.70
2022-10-25T09:41:09.146Z,16.70
2022-10-25T09:43:43.761Z,16.70
2022-10-25T09:46:21.882Z,16.70
2022-10-25T09:49:11.876Z,16.70
2022-10-25T09:51:52.691Z,16.70
2022-10-25T09:54:28.586Z,16.70
2022-10-25T09:57:04.262Z,16.70
2022-10-25T09:59:37.164Z,16.70
2022-10-25T10:02:11.789Z,16.70
2022-10-25T10:04:45.412Z,16.70
2022-10-25T10:07:22.799Z,16.70
2022-10-25T10:09:57.979Z,16.70
2022-10-25T10:12:35.510Z,16.70
2022-10-25T10:15:10.208Z,16.70
2022-10-25T10:17:43.139Z,16.70
2022-10-25T10:20:20.898Z,16.70
2022-10-25T10:22:56.296Z,16.70
2022-10-25T10:25:33.131Z,16.70
2022-10-25T10:28:06.041Z,16.70
2022-10-25T10:30:39.942Z,16.60
2022-10-25T10:33:15.970Z,16.60
2022-10-25T10:35:53.030Z,16.60
2022-10-25T10:38:28.248Z,16.60
2022-10-25T10:41:03.034Z,16.70
2022-10-25T10:43:36.775Z,16.60
2022-10-25T10:46:11.901Z,16.60
2022-10-25T10:48:46.415Z,16.60
2022-10-25T10:53:55.209Z,16.60
2022-10-25T10:56:29.716Z,16.60
2022-10-25T10:59:02.694Z,16.60
2022-10-25T11:01:36.619Z,16.60
2022-10-25T11:04:09.586Z,16.60
2022-10-25T11:06:42.371Z,16.60
2022-10-25T11:09:21.520Z,16.60
2022-10-25T11:12:14.574Z,16.50
2022-10-25T11:14:47.501Z,16.50
2022-10-25T11:17:28.411Z,16.50
2022-10-25T11:20:06.346Z,16.50
2022-10-25T11:22:48.692Z,16.50
2022-10-25T11:25:27.702Z,16.50
2022-10-25T11:28:05.454Z,16.50
2022-10-25T11:31:13.219Z,16.50
2022-10-25T11:34:03.256Z,16.50
2022-10-25T11:36:55.005Z,16.50
2022-10-25T11:39:50.682Z,16.50
2022-10-25T11:42:36.731Z,16.50
2022-10-25T11:45:17.897Z,16.50
2022-10-25T11:48:05.000Z,16.40
2022-10-25T11:50:59.635Z,16.50
2022-10-25T11:53:37.089Z,16.50
2022-10-25T11:56:27.034Z,16.50
2022-10-25T11:59:26.044Z,16.50
2022-10-25T12:02:17.618Z,16.50
2022-10-25T12:05:15.173Z,16.50
2022-10-25T12:08:18.560Z,16.40
2022-10-25T12:10:56.555Z,16.40
2022-10-25T12:13:49.829Z,16.40
2022-10-25T12:16:24.603Z,16.40
2022-10-25T12:19:05.571Z,16.30
2022-10-25T12:21:40.585Z,16.30
2022-10-25T12:24:15.759Z,16.30
2022-10-25T12:26:50.181Z,16.30
2022-10-25T12:29:43.520Z,16.40
2022-10-25T12:32:24.226Z,16.40
2022-10-25T12:34:58.463Z,16.40
2022-10-25T12:37:44.028Z,16.40
2022-10-25T12:43:04.994Z,16.40
2022-10-25T12:45:43.414Z,16.40
2022-10-25T12:48:30.593Z,16.30
2022-10-25T12:51:18.828Z,16.40
2022-10-25T12:54:08.224Z,16.30
2022-10-25T12:56:52.277Z,16.30
2022-10-25T12:59:27.329Z,16.30
2022-10-25T13:02:04.975Z,16.30
2022-10-25T13:04:49.448Z,16.30
2022-10-25T13:07:24.302Z,16.30
2022-10-25T13:09:58.530Z,16.30
2022-10-25T13:12:32.554Z,16.30
2022-10-25T13:15:09.205Z,16.30
2022-10-25T13:17:47.504Z,16.30
2022-10-25T13:20:28.777Z,16.30
2022-10-25T13:23:01.717Z,16.30
2022-10-25T13:25:54.690Z,16.30
2022-10-25T13:28:36.246Z,16.30
2022-10-25T13:31:36.144Z,16.30
2022-10-25T13:34:20.206Z,16.30
2022-10-25T13:36:57.260Z,16.20
2022-10-25T13:39:41.492Z,16.20
2022-10-25T13:42:22.898Z,16.20
2022-10-25T13:45:03.747Z,16.20
2022-10-25T13:47:41.416Z,16.20
2022-10-25T13:50:19.091Z,16.20
2022-10-25T13:53:06.003Z,16.20
2022-10-25T13:55:41.230Z,16.20
2022-10-25T13:58:38.406Z,16.20
2022-10-25T14:01:23.449Z,16.20
2022-10-25T14:04:11.497Z,16.20
2022-10-25T14:06:45.616Z,16.20
2022-10-25T14:09:41.894Z,16.20
2022-10-25T14:12:20.437Z,16.20
2022-10-25T14:15:13.298Z,16.20
2022-10-25T14:17:50.093Z,16.10
2022-10-25T14:20:28.091Z,16.20
2022-10-25T14:23:07.959Z,16.20
2022-10-25T14:25:50.140Z,16.10
2022-10-25T14:28:27.991Z,16.10
2022-10-25T14:31:05.688Z,16.10
2022-10-25T14:33:41.878Z,16.10
2022-10-25T14:36:17.585Z,16.10
2022-10-25T14:39:04.690Z,16.10
2022-10-25T14:41:39.390Z,16.10
2022-10-25T14:44:27.328Z,16.10
2022-10-25T14:47:01.341Z,16.10
2022-10-25T14:49:34.886Z,16.10
2022-10-25T14:52:09.802Z,16.10
2022-10-25T14:54:43.968Z,16.00
2022-10-25T14:57:18.546Z,16.00
2022-10-25T15:02:36.210Z,16.10
2022-10-25T15:05:10.474Z,16.10
2022-10-25T15:07:48.877Z,16.10
2022-10-25T15:10:36.875Z,16.10
2022-10-25T15:13:27.125Z,16.10
2022-10-25T15:16:00.736Z,16.10
2022-10-25T15:18:36.365Z,16.10
2022-10-25T15:21:20.600Z,16.20
2022-10-25T15:24:11.784Z,16.10
2022-10-25T15:27:05.014Z,16.10
2022-10-25T15:32:38.258Z,16.10
2022-10-25T15:35:30.291Z,16.10
2022-10-25T15:38:06.764Z,16.20
2022-10-25T15:46:39.809Z,16.10
2022-10-25T15:49:24.468Z,16.10
2022-10-25T15:52:04.193Z,16.10
2022-10-25T15:57:35.674Z,16.10
2022-10-25T16:00:13.516Z,16.10
2022-10-25T16:05:40.703Z,16.10
2022-10-25T16:08:18.088Z,16.20
2022-10-25T16:11:11.988Z,16.10
2022-10-25T16:13:46.300Z,16.10
2022-10-25T16:16:40.437Z,16.10
2022-10-25T16:19:07.891Z,16.10
2022-10-25T16:21:48.627Z,16.10
2022-10-25T16:24:24.116Z,16.10
2022-10-25T16:27:03.789Z,16.10
2022-10-25T16:29:39.068Z,16.10
2022-10-25T16:32:14.067Z,16.10
2022-10-25T16:34:52.510Z,16.10
2022-10-25T16:37:24.827Z,16.10
2022-10-25T16:40:10.073Z,16.00
2022-10-25T16:42:46.765Z,16.00
2022-10-25T16:45:28.776Z,16.00
2022-10-25T16:48:08.502Z,16.00
2022-10-25T16:50:48.213Z,16.00
2022-10-25T16:53:26.626Z,16.00
2022-10-25T16:56:14.449Z,16.00
2022-10-25T16:58:48.228Z,16.00
2022-10-25T17:01:44.567Z,15.90
2022-10-25T17:04:18.661Z,15.90
2022-10-25T17:09:42.799Z,15.90
2022-10-25T17:12:26.115Z,15.90
2022-10-25T17:15:03.126Z,15.90
2022-10-25T17:20:40.834Z,15.90
2022-10-25T17:23:22.329Z,15.90
2022-10-25T17:26:09.544Z,15.90
2022-10-25T17:28:48.832Z,15.90
2022-10-25T17:31:28.135Z,15.90
2022-10-25T17:34:21.439Z,15.90
2022-10-25T17:36:43.618Z,15.90
2022-10-25T17:39:21.568Z,15.90
2022-10-25T17:42:05.073Z,15.90
2022-10-25T17:44:48.552Z,15.90
2022-10-25T17:47:33.807Z,15.90
2022-10-25T17:50:16.113Z,15.90
2022-10-25T17:52:46.647Z,15.90
2022-10-25T17:58:08.848Z,15.90
2022-10-25T18:00:44.774Z,15.90
2022-10-25T18:03:28.609Z,16.00
2022-10-25T18:06:11.508Z,16.00
2022-10-25T18:08:59.002Z,16.00
2022-10-25T18:11:41.949Z,16.00
2022-10-25T18:14:32.309Z,16.00
2022-10-25T18:19:55.671Z,16.00
2022-10-25T18:22:28.603Z,16.10
2022-10-25T18:25:01.638Z,16.10
2022-10-25T18:27:35.087Z,16.10
2022-10-25T18:30:09.051Z,16.10
2022-10-25T18:32:46.520Z,16.10
2022-10-25T18:35:22.211Z,16.20
2022-10-25T18:37:55.677Z,16.20
2022-10-25T18:40:28.494Z,16.20
2022-10-25T18:43:01.374Z,16.30
2022-10-25T18:45:34.388Z,16.30
2022-10-25T18:48:08.302Z,16.30
2022-10-25T18:50:42.655Z,16.30
2022-10-25T18:53:19.623Z,16.40
2022-10-25T18:55:55.632Z,16.40
2022-10-25T18:58:28.479Z,16.40
2022-10-25T19:01:02.849Z,16.50
2022-10-25T19:03:35.863Z,16.60
2022-10-25T19:06:13.049Z,16.70
2022-10-25T19:08:46.544Z,16.70
2022-10-25T19:11:19.834Z,16.80
2022-10-25T19:13:53.940Z,16.90
2022-10-25T19:16:27.098Z,16.90
2022-10-25T19:18:59.946Z,16.90
2022-10-25T19:21:32.950Z,17.00
2022-10-25T19:24:06.435Z,17.00
2022-10-25T19:26:39.452Z,17.00
2022-10-25T19:29:12.801Z,17.00
2022-10-25T19:31:45.722Z,17.00
2022-10-25T19:34:18.669Z,17.00
2022-10-25T19:36:53.009Z,17.00
2022-10-25T19:39:26.005Z,17.10
2022-10-25T19:41:58.867Z,17.10
2022-10-25T19:44:31.668Z,17.10
2022-10-25T19:47:04.566Z,17.10
2022-10-25T19:49:37.417Z,17.10
2022-10-25T19:52:10.329Z,17.10
2022-10-25T19:54:43.333Z,17.10
2022-10-25T19:57:16.476Z,17.10
2022-10-25T19:59:49.499Z,17.10
2022-10-25T20:02:22.447Z,17.10
2022-10-25T20:04:55.486Z,17.10
2022-10-25T20:07:28.433Z,17.10
2022-10-25T20:10:01.340Z,17.10
2022-10-25T20:12:34.225Z,17.20
2022-10-25T20:15:07.202Z,17.20
2022-10-25T20:17:40.092Z,17.30
2022-10-25T20:20:14.123Z,17.30
2022-10-25T20:22:46.956Z,17.30
2022-10-25T20:25:22.334Z,17.40
2022-10-25T20:27:54.566Z,17.40
2022-10-25T20:30:27.776Z,17.40
2022-10-25T20:33:00.713Z,17.40
2022-10-25T20:35:34.861Z,17.50
2022-10-25T20:38:15.940Z,17.50
2022-10-25T20:40:48.894Z,17.60
2022-10-25T20:43:22.176Z,17.60
2022-10-25T20:45:55.241Z,17.60
2022-10-25T20:48:32.465Z,17.70
2022-10-25T20:51:07.726Z,17.70
2022-10-25T20:53:40.684Z,17.80
2022-10-25T20:56:13.788Z,17.80
2022-10-25T20:58:46.970Z,17.90
2022-10-25T21:01:20.204Z,17.90
2022-10-25T21:03:53.603Z,18.00
2022-10-25T21:06:26.564Z,18.10
2022-10-25T21:08:59.222Z,18.10
2022-10-25T21:11:32.156Z,18.10
2022-10-25T21:14:04.995Z,18.10
2022-10-25T21:16:38.044Z,18.20
2022-10-25T21:19:11.009Z,18.20
2022-10-25T21:21:44.030Z,18.30
2022-10-25T21:24:16.910Z,18.30
2022-10-25T21:26:49.902Z,18.40
2022-10-25T21:29:22.737Z,18.40
2022-10-25T21:31:55.639Z,18.50
2022-10-25T21:34:29.492Z,18.60
2022-10-25T21:37:02.435Z,18.70
2022-10-25T21:39:35.232Z,18.80
2022-10-25T21:42:08.270Z,18.80
2022-10-25T21:44:41.263Z,18.90
2022-10-25T21:47:14.289Z,19.00
2022-10-25T21:49:47.124Z,19.10
2022-10-25T21:52:19.968Z,19.20
2022-10-25T21:54:52.695Z,19.20
2022-10-25T21:57:25.530Z,19.20
2022-10-25T21:59:58.439Z,19.30
2022-10-25T22:02:31.371Z,19.40
2022-10-25T22:05:04.524Z,19.40
2022-10-25T22:07:37.474Z,19.50
2022-10-25T22:10:11.209Z,19.50
2022-10-25T22:12:44.269Z,19.50
2022-10-25T22:15:17.018Z,19.50
2022-10-25T22:17:50.300Z,19.60
2022-10-25T22:20:27.373Z,19.60
2022-10-25T22:23:00.236Z,19.70
2022-10-25T22:25:33.062Z,19.80
2022-10-25T22:28:06.337Z,19.80
2022-10-25T22:30:39.355Z,19.80
2022-10-25T22:33:12.426Z,19.90
2022-10-25T22:35:45.081Z,20.00
2022-10-25T22:38:17.931Z,20.00
2022-10-25T22:41:01.010Z,20.10
2022-10-25T22:43:34.022Z,20.10
2022-10-25T22:46:08.134Z,20.20
2022-10-25T22:48:43.096Z,20.20
2022-10-25T22:51:16.749Z,20.30
2022-10-25T22:53:49.595Z,20.30
2022-10-25T22:56:27.404Z,20.30
2022-10-25T22:59:19.791Z,20.20
2022-10-25T23:01:53.144Z,20.20
2022-10-25T23:04:28.402Z,20.20
2022-10-25T23:07:01.208Z,20.20
2022-10-25T23:09:34.162Z,20.30
2022-10-25T23:12:07.302Z,20.30
2022-10-25T23:14:40.167Z,20.30
2022-10-25T23:17:13.069Z,20.40
2022-10-25T23:19:45.958Z,20.40
2022-10-25T23:22:18.900Z,20.40
2022-10-25T23:24:51.864Z,20.40
2022-10-25T23:27:24.769Z,20.50
2022-10-25T23:29:57.440Z,20.50
2022-10-25T23:32:30.488Z,20.50
2022-10-25T23:35:03.350Z,20.50
2022-10-25T23:37:36.303Z,20.50
2022-10-25T23:40:09.806Z,20.60
2022-10-25T23:45:16.286Z,20.80
2022-10-25T23:47:49.324Z,20.80
2022-10-25T23:50:22.204Z,20.90
2022-10-25T23:52:55.070Z,20.90
2022-10-25T23:55:28.085Z,20.90
2022-10-25T23:58:04.240Z,20.90
